createdAt,value
2023-03-03T00:01:04.659Z,0.54
2023-03-03T00:05:57.680Z,1.08
2023-03-03T00:10:49.899Z,1.05
2023-03-03T00:15:43.567Z,0.08
2023-03-03T00:20:40.025Z,0.09
2023-03-03T00:25:34.494Z,0.18
2023-03-03T00:30:28.002Z,-1.67
2023-03-03T00:35:24.360Z,-0.83
2023-03-03T00:40:27.951Z,-0.50
2023-03-03T00:45:27.081Z,0.59
2023-03-03T00:50:34.449Z,0.04
2023-03-03T00:55:26.192Z,-0.91
2023-03-03T01:00:18.778Z,0.40
2023-03-03T01:05:13.697Z,0.04
2023-03-03T01:10:06.179Z,-0.06
2023-03-03T01:14:59.426Z,-0.21
2023-03-03T01:19:51.132Z,0.19
2023-03-03T01:24:42.879Z,-1.57
2023-03-03T01:29:35.850Z,-0.41
2023-03-03T01:34:28.878Z,-0.09
2023-03-03T01:39:20.669Z,0.04
2023-03-03T01:44:15.514Z,-0.03
2023-03-03T01:49:33.786Z,-0.09
2023-03-03T01:54:32.146Z,-1.20
2023-03-03T01:59:27.125Z,-1.11
2023-03-03T02:04:21.809Z,-0.71
2023-03-03T02:09:32.251Z,-0.31
2023-03-03T02:14:25.585Z,-0.83
2023-03-03T02:19:29.312Z,-0.36
2023-03-03T02:24:40.061Z,-0.37
2023-03-03T02:29:31.774Z,-1.38
2023-03-03T02:34:24.300Z,-1.19
2023-03-03T02:39:26.772Z,-0.53
2023-03-03T02:44:24.411Z,-1.23
2023-03-03T02:49:19.912Z,-0.95
2023-03-03T02:54:14.426Z,-0.96
2023-03-03T02:59:06.985Z,-1.59
2023-03-03T03:04:16.387Z,-1.98
2023-03-03T03:09:12.221Z,-0.27
2023-03-03T03:14:05.838Z,-1.34
2023-03-03T03:19:00.308Z,-1.33
2023-03-03T03:23:53.759Z,0.25
2023-03-03T03:28:45.871Z,-0.89
2023-03-03T03:33:37.983Z,-0.63
2023-03-03T03:38:31.538Z,0.38
2023-03-03T03:43:23.849Z,-1.07
2023-03-03T03:48:16.780Z,0.14
2023-03-03T03:53:10.865Z,0.56
2023-03-03T03:58:03.351Z,-0.41
2023-03-03T04:02:55.430Z,-1.40
2023-03-03T04:07:47.624Z,0.50
2023-03-03T04:12:42.223Z,0.76
2023-03-03T04:17:38.238Z,-0.71
2023-03-03T04:22:35.006Z,-0.40
2023-03-03T04:27:27.668Z,0.30
2023-03-03T04:32:19.302Z,0.71
2023-03-03T04:37:12.698Z,-0.66
2023-03-03T04:42:04.585Z,0.89
2023-03-03T04:46:56.274Z,1.00
2023-03-03T04:51:48.445Z,-0.95
2023-03-03T04:56:40.384Z,1.13
2023-03-03T05:01:32.946Z,-0.65
2023-03-03T05:06:25.637Z,1.11
2023-03-03T05:11:17.362Z,-1.48
2023-03-03T05:16:09.449Z,0.37
2023-03-03T05:21:01.356Z,1.08
2023-03-03T05:25:53.153Z,-0.44
2023-03-03T05:30:45.280Z,0.27
2023-03-03T05:35:37.020Z,1.10
2023-03-03T05:40:28.787Z,-1.13
2023-03-03T05:45:21.293Z,-0.90
2023-03-03T05:50:13.878Z,1.01
2023-03-03T05:55:06.322Z,0.93
2023-03-03T05:59:58.185Z,-0.73
2023-03-03T06:04:50.094Z,0.28
2023-03-03T06:09:41.877Z,-0.64
2023-03-03T06:14:33.850Z,-1.07
2023-03-03T06:19:25.983Z,0.73
2023-03-03T06:24:17.761Z,-0.47
2023-03-03T06:29:09.515Z,0.18
2023-03-03T06:34:01.368Z,-0.64
2023-03-03T06:38:53.167Z,1.31
2023-03-03T06:43:45.119Z,-0.89
2023-03-03T06:48:36.866Z,-0.25
2023-03-03T06:53:31.522Z,0.78
2023-03-03T06:58:24.552Z,1.38
2023-03-03T07:03:21.708Z,1.38
2023-03-03T07:08:18.730Z,-0.71
2023-03-03T07:13:24.642Z,1.43
2023-03-03T07:19:01.657Z,1.40
2023-03-03T07:23:54.284Z,1.70
2023-03-03T07:28:54.870Z,-0.06
2023-03-03T07:33:46.920Z,0.93
2023-03-03T07:38:42.865Z,1.59
2023-03-03T07:43:37.216Z,1.55
2023-03-03T07:48:37.872Z,0.89
2023-03-03T07:53:34.820Z,1.92
2023-03-03T07:58:41.030Z,1.78
2023-03-03T08:03:36.896Z,0.72
2023-03-03T08:08:34.791Z,1.27
2023-03-03T08:13:38.305Z,1.70
2023-03-03T08:18:36.103Z,2.16
2023-03-03T08:23:27.901Z,2.12
2023-03-03T08:28:20.918Z,-1.05
2023-03-03T08:33:14.643Z,1.12
2023-03-03T08:38:06.687Z,2.42
2023-03-03T08:42:58.460Z,2.39
2023-03-03T08:47:50.276Z,2.33
2023-03-03T08:52:42.172Z,1.63
2023-03-03T08:57:34.121Z,1.92
2023-03-03T09:02:25.782Z,0.13
2023-03-03T09:07:17.529Z,1.95
2023-03-03T09:12:40.250Z,3.04
2023-03-03T09:17:37.595Z,1.36
2023-03-03T09:22:29.443Z,1.55
2023-03-03T09:27:35.380Z,2.79
2023-03-03T09:32:34.852Z,3.51
2023-03-03T09:37:36.463Z,1.98
2023-03-03T09:42:43.351Z,3.97
2023-03-03T09:48:04.682Z,3.24
2023-03-03T09:53:03.879Z,3.93
2023-03-03T09:58:33.077Z,4.01
2023-03-03T10:03:40.065Z,3.99
2023-03-03T10:09:10.058Z,3.83
2023-03-03T10:14:14.499Z,4.17
2023-03-03T10:19:37.070Z,4.24
2023-03-03T10:24:31.924Z,3.62
2023-03-03T10:29:50.797Z,4.02
2023-03-03T10:35:11.425Z,4.68
2023-03-03T10:40:21.457Z,5.31
2023-03-03T10:45:38.925Z,3.62
2023-03-03T10:50:37.798Z,5.29
2023-03-03T10:55:39.763Z,5.42
2023-03-03T11:00:52.516Z,5.83
2023-03-03T11:06:29.619Z,6.05
2023-03-03T11:11:27.343Z,5.76
2023-03-03T11:16:19.010Z,6.41
2023-03-03T11:21:34.251Z,5.51
2023-03-03T11:26:43.878Z,5.97
2023-03-03T11:31:45.386Z,5.55
2023-03-03T11:36:43.544Z,6.26
2023-03-03T11:41:42.454Z,6.19
2023-03-03T11:46:48.570Z,6.62
2023-03-03T11:51:43.298Z,6.68
2023-03-03T11:56:38.114Z,6.81
2023-03-03T12:01:47.000Z,7.19
2023-03-03T12:06:54.206Z,7.66
2023-03-03T12:12:07.425Z,7.45
2023-03-03T12:17:21.637Z,6.75
2023-03-03T12:22:31.399Z,8.07
2023-03-03T12:27:47.866Z,8.11
2023-03-03T12:32:48.612Z,7.85
2023-03-03T12:37:48.133Z,6.48
2023-03-03T12:43:01.974Z,7.71
2023-03-03T12:48:45.648Z,5.38
2023-03-03T12:54:09.909Z,7.15
2023-03-03T12:59:09.151Z,6.58
2023-03-03T13:04:08.601Z,7.57
2023-03-03T13:09:32.056Z,7.83
2023-03-03T13:15:18.405Z,7.57
2023-03-03T13:20:38.270Z,5.83
2023-03-03T13:25:47.398Z,7.45
2023-03-03T13:30:44.777Z,5.83
2023-03-03T13:35:47.118Z,7.72
2023-03-03T13:40:49.057Z,7.61
2023-03-03T13:45:50.030Z,7.49
2023-03-03T13:50:56.518Z,5.18
2023-03-03T13:56:00.043Z,7.67
2023-03-03T14:01:01.899Z,7.37
2023-03-03T14:06:04.317Z,5.76
2023-03-03T14:11:15.122Z,5.45
2023-03-03T14:16:31.579Z,6.12
2023-03-03T14:21:49.664Z,5.14
2023-03-03T14:27:22.731Z,5.29
2023-03-03T14:32:35.849Z,5.48
2023-03-03T14:37:46.264Z,5.10
2023-03-03T14:42:45.588Z,5.75
2023-03-03T14:47:39.429Z,5.30
2023-03-03T14:52:33.892Z,5.29
2023-03-03T14:57:41.593Z,5.48
2023-03-03T15:03:09.071Z,2.50
2023-03-03T15:08:04.476Z,5.05
2023-03-03T15:12:56.425Z,3.88
2023-03-03T15:18:00.133Z,5.00
2023-03-03T15:23:06.641Z,4.44
2023-03-03T15:28:36.786Z,4.82
2023-03-03T15:33:35.014Z,3.86
2023-03-03T15:38:38.766Z,4.54
2023-03-03T15:43:40.325Z,4.76
2023-03-03T15:48:45.079Z,2.93
2023-03-03T15:53:51.382Z,2.90
2023-03-03T15:59:21.597Z,4.12
2023-03-03T16:04:19.798Z,4.06
2023-03-03T16:09:25.901Z,3.62
2023-03-03T16:15:16.209Z,2.60
2023-03-03T16:20:28.306Z,2.34
2023-03-03T16:25:42.351Z,3.75
2023-03-03T16:30:45.383Z,3.68
2023-03-03T16:35:50.422Z,3.24
2023-03-03T16:40:55.823Z,3.54
2023-03-03T16:45:48.442Z,2.38
2023-03-03T16:51:09.472Z,3.44
2023-03-03T16:56:11.119Z,3.36
2023-03-03T17:01:18.167Z,1.04
2023-03-03T17:06:17.511Z,3.13
2023-03-03T17:11:17.509Z,3.00
2023-03-03T17:16:25.967Z,2.88
2023-03-03T17:21:28.940Z,2.76
2023-03-03T17:26:58.237Z,2.63
2023-03-03T17:32:23.741Z,2.40
2023-03-03T17:37:24.774Z,2.36
2023-03-03T17:42:42.672Z,2.21
2023-03-03T17:47:55.754Z,2.16
2023-03-03T17:53:06.315Z,2.15
2023-03-03T17:58:10.046Z,2.10
2023-03-03T18:03:20.246Z,1.99
2023-03-03T18:08:36.736Z,1.40
2023-03-03T18:13:40.661Z,1.87
2023-03-03T18:18:45.450Z,1.13
2023-03-03T18:23:43.521Z,0.63
2023-03-03T18:28:47.464Z,0.69
2023-03-03T18:34:03.780Z,1.62
2023-03-03T18:38:57.637Z,0.68
2023-03-03T18:43:53.893Z,-0.59
2023-03-03T18:48:50.449Z,1.37
2023-03-03T18:54:01.580Z,0.52
2023-03-03T18:58:53.748Z,0.82
2023-03-03T19:03:48.185Z,1.35
2023-03-03T19:08:53.720Z,1.20
2023-03-03T19:13:46.919Z,0.39
2023-03-03T19:18:41.595Z,1.09
2023-03-03T19:23:53.449Z,1.02
2023-03-03T19:29:08.746Z,-1.96
2023-03-03T19:34:12.717Z,-2.46
2023-03-03T19:39:19.605Z,0.81
2023-03-03T19:44:44.742Z,0.73
2023-03-03T19:49:51.601Z,0.79
2023-03-03T19:54:54.499Z,-0.28
2023-03-03T19:59:58.423Z,-0.35
2023-03-03T20:05:24.390Z,0.95
2023-03-03T20:10:16.088Z,0.93
2023-03-03T20:15:12.443Z,0.90
2023-03-03T20:20:37.653Z,0.93
2023-03-03T20:25:43.547Z,1.11
2023-03-03T20:30:48.666Z,0.27
2023-03-03T20:35:53.416Z,1.30
2023-03-03T20:41:17.634Z,1.34
2023-03-03T20:46:34.206Z,0.06
2023-03-03T20:51:44.777Z,1.80
2023-03-03T20:56:44.190Z,1.56
2023-03-03T21:01:57.896Z,2.12
2023-03-03T21:06:50.393Z,-0.05
2023-03-03T21:11:44.075Z,2.36
2023-03-03T21:16:36.040Z,0.67
2023-03-03T21:21:30.706Z,0.23
2023-03-03T21:26:49.439Z,2.69
2023-03-03T21:31:53.197Z,1.13
2023-03-03T21:36:49.323Z,1.70
2023-03-03T21:41:52.079Z,0.75
2023-03-03T21:46:43.922Z,0.29
2023-03-03T21:51:35.670Z,2.42
2023-03-03T21:56:27.411Z,2.39
2023-03-03T22:01:19.253Z,2.65
2023-03-03T22:06:10.997Z,2.89
2023-03-03T22:11:02.694Z,1.56
2023-03-03T22:15:55.247Z,2.98
2023-03-03T22:20:48.200Z,1.18
2023-03-03T22:25:39.973Z,2.10
2023-03-03T22:30:31.995Z,2.27
2023-03-03T22:35:23.937Z,3.11
2023-03-03T22:40:15.866Z,0.54
2023-03-03T22:45:10.080Z,3.03
2023-03-03T22:50:03.824Z,2.86
2023-03-03T22:54:58.360Z,0.93
2023-03-03T22:59:50.076Z,2.46
2023-03-03T23:04:41.782Z,0.44
2023-03-03T23:09:34.034Z,3.02
2023-03-03T23:14:26.026Z,3.12
2023-03-03T23:19:17.831Z,2.40
2023-03-03T23:24:11.125Z,3.15
2023-03-03T23:36:52.485Z,2.80
2023-03-03T23:41:45.136Z,2.44
2023-03-03T23:46:38.053Z,3.62
2023-03-03T23:51:30.247Z,3.69
2023-03-03T23:56:22.069Z,3.68
